Time;durP1;ratioP1;P1;durP2;ratioP2;P2;SDS_P1;SDS_P2;PMS_P1;PMS_P2;Temp;Humidity;BMP_temperature;BMP_pressure;BME280_temperature;BME280_humidity;BME280_pressure;Samples;Min_cycle;Max_cycle;Signal;HPM_P1;HPM_P2
2023/12/14 00:02:04;;;;;;;10.13;6.68;;;5.40;99.90;;;;;;5050964;28;20412;-73
2023/12/14 00:04:30;;;;;;;8.85;5.65;;;5.40;99.90;;;;;;5053533;28;20523;-73
2023/12/14 00:06:55;;;;;;;10.27;6.05;;;5.40;99.90;;;;;;5051363;28;20064;-74
2023/12/14 00:09:21;;;;;;;9.80;6.22;;;5.30;99.90;;;;;;5053089;28;20036;-74
2023/12/14 00:11:46;;;;;;;9.50;5.90;;;5.30;99.90;;;;;;5048508;28;20496;-74
2023/12/14 00:14:12;;;;;;;9.45;6.15;;;5.30;99.90;;;;;;5046936;28;20126;-74
2023/12/14 00:16:38;;;;;;;10.15;6.50;;;5.40;99.90;;;;;;5051808;28;20045;-74
2023/12/14 00:19:03;;;;;;;10.73;6.18;;;5.30;99.90;;;;;;5052556;28;20123;-74
2023/12/14 00:21:29;;;;;;;10.30;6.88;;;5.30;99.90;;;;;;5052173;28;20388;-74
2023/12/14 00:23:54;;;;;;;9.00;5.32;;;5.40;99.90;;;;;;5052188;28;20068;-74
2023/12/14 00:26:20;;;;;;;9.65;5.68;;;5.40;99.90;;;;;;5041851;28;20464;-74
2023/12/14 00:28:46;;;;;;;9.90;6.05;;;5.40;99.90;;;;;;5045067;28;20048;-74
2023/12/14 00:31:11;;;;;;;10.10;6.63;;;5.40;99.90;;;;;;5045802;28;20041;-74
2023/12/14 00:33:37;;;;;;;10.48;6.55;;;5.40;99.90;;;;;;5049255;28;20399;-74
2023/12/14 00:36:03;;;;;;;10.88;6.55;;;5.40;99.90;;;;;;5047486;28;20122;-74
2023/12/14 00:38:28;;;;;;;10.30;6.80;;;5.30;99.90;;;;;;5050108;28;20037;-74
2023/12/14 00:40:54;;;;;;;9.70;6.20;;;5.40;99.90;;;;;;5047089;28;20040;-73
2023/12/14 00:43:20;;;;;;;10.20;6.25;;;5.40;99.90;;;;;;5048466;28;20044;-74
2023/12/14 00:45:45;;;;;;;10.35;6.97;;;5.40;99.90;;;;;;5046653;28;20029;-74
2023/12/14 00:48:11;;;;;;;8.48;5.68;;;5.40;99.90;;;;;;5046661;28;20044;-73
2023/12/14 00:50:37;;;;;;;10.05;6.07;;;5.40;99.90;;;;;;5049106;28;20130;-74
2023/12/14 00:53:02;;;;;;;12.55;6.80;;;5.40;99.90;;;;;;5042504;28;20037;-74
2023/12/14 00:55:28;;;;;;;9.85;6.00;;;5.40;99.90;;;;;;5042483;28;20037;-74
2023/12/14 00:57:53;;;;;;;11.30;7.03;;;5.50;99.90;;;;;;5046551;28;20476;-74
2023/12/14 01:00:19;;;;;;;10.18;6.70;;;5.40;99.90;;;;;;5047091;28;20041;-73
2023/12/14 01:02:45;;;;;;;10.88;6.80;;;5.40;99.90;;;;;;5044657;28;20051;-73
2023/12/14 01:05:10;;;;;;;11.13;6.07;;;5.40;99.90;;;;;;5037030;28;20041;-74
2023/12/14 01:07:36;;;;;;;9.98;6.53;;;5.40;99.90;;;;;;5045626;28;20067;-74
2023/12/14 01:10:03;;;;;;;10.38;6.10;;;5.40;99.90;;;;;;5047064;28;20107;-74
2023/12/14 01:12:28;;;;;;;11.15;6.85;;;5.40;99.90;;;;;;5047128;28;20037;-74
2023/12/14 01:14:54;;;;;;;9.30;5.80;;;5.40;99.90;;;;;;5044098;28;20056;-74
2023/12/14 01:17:19;;;;;;;9.80;6.10;;;5.40;99.90;;;;;;5046295;28;20049;-74
2023/12/14 01:19:45;;;;;;;10.98;7.07;;;5.40;99.90;;;;;;5050332;28;20424;-73
2023/12/14 01:22:11;;;;;;;9.27;5.78;;;5.30;99.90;;;;;;5045500;28;20045;-74
2023/12/14 01:24:36;;;;;;;10.43;6.78;;;5.30;99.90;;;;;;5043849;28;20048;-73
2023/12/14 01:27:02;;;;;;;9.80;6.50;;;5.30;99.90;;;;;;5044197;28;20124;-74
2023/12/14 01:29:28;;;;;;;10.10;6.70;;;5.30;99.90;;;;;;5045593;28;20499;-74
2023/12/14 01:31:53;;;;;;;10.00;6.20;;;5.30;99.90;;;;;;5044700;28;20044;-73
2023/12/14 01:34:19;;;;;;;11.57;6.53;;;5.30;99.90;;;;;;5042219;28;20041;-74
2023/12/14 01:36:45;;;;;;;9.98;5.93;;;5.30;99.90;;;;;;5044262;28;20048;-74
2023/12/14 01:39:10;;;;;;;8.95;5.65;;;5.30;99.90;;;;;;5047191;28;20492;-74
2023/12/14 01:41:36;;;;;;;10.05;6.32;;;5.30;99.90;;;;;;5038296;28;20129;-73
2023/12/14 01:44:01;;;;;;;8.70;5.93;;;5.30;99.90;;;;;;5043361;28;20610;-73
2023/12/14 01:46:27;;;;;;;10.90;6.35;;;5.30;99.90;;;;;;5045482;28;20075;-74
2023/12/14 01:48:53;;;;;;;9.77;5.78;;;5.30;99.90;;;;;;5045344;28;20091;-74
2023/12/14 01:51:19;;;;;;;9.98;6.03;;;5.30;99.90;;;;;;5046403;28;20045;-73
2023/12/14 01:53:44;;;;;;;11.00;6.30;;;5.30;99.90;;;;;;5046998;28;20052;-73
2023/12/14 01:56:10;;;;;;;8.93;5.15;;;5.30;99.90;;;;;;5045060;28;20039;-74
2023/12/14 01:58:36;;;;;;;10.02;5.72;;;5.20;99.90;;;;;;5041207;28;20473;-74
2023/12/14 02:01:26;;;;;;;9.15;5.80;;;5.20;99.90;;;;;;5046888;28;20056;-74
2023/12/14 02:03:54;;;;;;;9.20;5.25;;;5.20;99.90;;;;;;5042472;28;20722;-73
2023/12/14 02:06:20;;;;;;;10.68;5.60;;;5.20;99.90;;;;;;5045920;28;20044;-73
2023/12/14 02:08:45;;;;;;;9.52;5.43;;;5.30;99.90;;;;;;5042717;28;20041;-73
2023/12/14 02:11:11;;;;;;;8.88;5.07;;;5.20;99.90;;;;;;5048355;28;20045;-74
2023/12/14 02:13:37;;;;;;;8.57;4.95;;;5.20;99.90;;;;;;5039271;28;20092;-74
2023/12/14 02:16:03;;;;;;;8.07;4.18;;;5.00;99.90;;;;;;5044667;28;20484;-73
2023/12/14 02:18:29;;;;;;;8.30;4.60;;;5.10;99.90;;;;;;5046155;28;20033;-73
2023/12/14 02:20:54;;;;;;;8.45;5.28;;;5.10;99.90;;;;;;5062532;28;20052;-74
2023/12/14 02:23:20;;;;;;;9.55;5.35;;;5.10;99.90;;;;;;5040010;28;20044;-74
2023/12/14 02:25:46;;;;;;;9.13;4.95;;;5.10;99.90;;;;;;5062952;28;20056;-74
2023/12/14 02:28:11;;;;;;;9.57;5.22;;;5.10;99.90;;;;;;5047425;28;20052;-74
2023/12/14 02:30:37;;;;;;;10.27;6.10;;;5.10;99.90;;;;;;5044518;28;20788;-74
2023/12/14 02:33:02;;;;;;;10.60;5.85;;;5.00;99.90;;;;;;5032032;28;20044;-74
2023/12/14 02:35:28;;;;;;;12.23;5.50;;;5.00;99.90;;;;;;5039994;28;20102;-74
2023/12/14 02:37:54;;;;;;;10.15;5.50;;;5.00;99.90;;;;;;5045536;28;20075;-74
2023/12/14 02:40:19;;;;;;;10.82;5.65;;;5.00;99.90;;;;;;5046202;28;20039;-74
2023/12/14 02:42:45;;;;;;;9.13;5.68;;;5.00;99.90;;;;;;5047185;28;20068;-74
2023/12/14 02:45:11;;;;;;;10.25;6.25;;;5.00;99.90;;;;;;5046876;28;20473;-74
2023/12/14 02:47:36;;;;;;;10.00;5.95;;;5.00;99.90;;;;;;5047572;28;20532;-74
2023/12/14 02:50:02;;;;;;;11.93;6.13;;;5.00;99.90;;;;;;5045619;28;20045;-74
2023/12/14 02:52:28;;;;;;;14.25;6.63;;;5.00;99.90;;;;;;5043093;28;20044;-74
2023/12/14 02:54:54;;;;;;;13.73;7.05;;;5.00;99.90;;;;;;5041044;28;20040;-73
2023/12/14 02:57:19;;;;;;;11.07;5.65;;;5.00;99.90;;;;;;5034849;28;20110;-74
2023/12/14 02:59:45;;;;;;;11.80;6.32;;;5.00;99.90;;;;;;5037674;28;20073;-74
2023/12/14 03:02:11;;;;;;;10.90;5.93;;;5.00;99.90;;;;;;5047872;28;20057;-73
2023/12/14 03:04:40;;;;;;;10.30;5.75;;;5.00;99.90;;;;;;5047529;28;20111;-74
2023/12/14 03:07:06;;;;;;;10.82;6.15;;;5.00;99.90;;;;;;5057520;28;20075;-74
2023/12/14 03:09:32;;;;;;;10.40;6.43;;;4.90;99.90;;;;;;5043898;28;20063;-74
2023/12/14 03:11:58;;;;;;;10.10;6.07;;;4.90;99.90;;;;;;5045482;28;20092;-73
2023/12/14 03:14:24;;;;;;;10.95;6.25;;;4.90;99.90;;;;;;5045790;28;20037;-74
2023/12/14 03:16:50;;;;;;;10.18;5.50;;;4.90;99.90;;;;;;5047788;28;20439;-74
2023/12/14 03:19:16;;;;;;;10.00;5.22;;;4.90;99.90;;;;;;5061619;28;20041;-73
2023/12/14 03:21:42;;;;;;;8.82;5.28;;;4.90;99.90;;;;;;5046032;28;20384;-74
2023/12/14 03:24:09;;;;;;;10.40;5.70;;;4.90;99.90;;;;;;5044306;28;20555;-74
2023/12/14 03:26:35;;;;;;;11.43;6.28;;;4.90;99.90;;;;;;5042262;28;20374;-74
2023/12/14 03:29:00;;;;;;;9.10;5.25;;;4.90;99.90;;;;;;5040111;28;20056;-74
2023/12/14 03:31:26;;;;;;;11.65;5.88;;;4.90;99.90;;;;;;5038657;28;20049;-74
2023/12/14 03:33:52;;;;;;;11.98;6.47;;;4.90;99.90;;;;;;5042106;28;20060;-74
2023/12/14 03:36:17;;;;;;;11.15;5.95;;;4.90;99.90;;;;;;5045080;28;20667;-74
2023/12/14 03:38:43;;;;;;;11.15;5.85;;;4.90;99.90;;;;;;5043778;28;20122;-74
2023/12/14 03:41:08;;;;;;;10.35;5.45;;;4.90;99.90;;;;;;5040508;28;20037;-74
2023/12/14 03:43:34;;;;;;;8.85;5.40;;;4.90;99.90;;;;;;5041057;28;20037;-73
2023/12/14 03:46:00;;;;;;;13.93;5.80;;;5.00;99.90;;;;;;5033476;28;20045;-74
2023/12/14 03:48:25;;;;;;;9.95;6.00;;;5.00;99.90;;;;;;5041910;28;20037;-74
2023/12/14 03:50:51;;;;;;;9.20;4.80;;;5.00;99.90;;;;;;5042203;28;20112;-74
2023/12/14 03:53:17;;;;;;;10.85;6.00;;;5.00;99.90;;;;;;5045627;28;20649;-74
2023/12/14 03:55:42;;;;;;;8.40;5.50;;;4.90;99.90;;;;;;5041824;28;20048;-73
2023/12/14 03:58:08;;;;;;;10.73;5.82;;;5.00;99.90;;;;;;5037897;28;20037;-73
2023/12/14 04:00:33;;;;;;;11.00;5.68;;;5.00;99.90;;;;;;5041505;28;20064;-74
2023/12/14 04:02:59;;;;;;;10.77;5.97;;;5.00;99.90;;;;;;5049332;28;20053;-74
2023/12/14 04:05:25;;;;;;;8.82;5.57;;;5.00;99.90;;;;;;5043662;28;20041;-74
2023/12/14 04:07:50;;;;;;;8.95;5.63;;;5.00;99.90;;;;;;5045696;28;20041;-73
2023/12/14 04:10:16;;;;;;;11.52;6.00;;;5.10;99.90;;;;;;5049097;28;20037;-74
2023/12/14 04:12:42;;;;;;;10.80;5.22;;;5.00;99.90;;;;;;5050558;28;20507;-74
2023/12/14 04:15:09;;;;;;;10.50;5.95;;;5.00;99.90;;;;;;5043818;28;20049;-74
2023/12/14 04:17:35;;;;;;;;;;;5.00;99.90;;;;;;5051365;28;20098;-74
2023/12/14 04:20:02;;;;;;;8.90;5.03;;;5.00;99.90;;;;;;5050094;28;19924;-74
2023/12/14 04:22:28;;;;;;;8.15;5.30;;;5.00;99.90;;;;;;5047852;28;20462;-74
2023/12/14 04:24:54;;;;;;;7.45;5.03;;;5.00;99.90;;;;;;5047075;28;20045;-74
2023/12/14 04:27:20;;;;;;;7.40;4.40;;;4.90;99.90;;;;;;5050149;28;20037;-74
2023/12/14 04:29:46;;;;;;;7.68;4.63;;;4.90;99.90;;;;;;5049899;28;20041;-74
2023/12/14 04:32:11;;;;;;;7.78;4.57;;;4.90;99.90;;;;;;5050413;28;21427;-74
2023/12/14 04:34:37;;;;;;;7.53;4.65;;;4.90;99.90;;;;;;5047869;28;20040;-74
2023/12/14 04:37:03;;;;;;;9.27;4.40;;;4.90;99.90;;;;;;5044391;28;20053;-74
2023/12/14 04:39:29;;;;;;;6.78;3.95;;;4.90;99.90;;;;;;5050553;28;20060;-74
2023/12/14 04:41:54;;;;;;;8.02;4.43;;;4.90;99.90;;;;;;5044074;28;20102;-74
2023/12/14 04:44:21;;;;;;;8.40;4.68;;;4.90;99.90;;;;;;5042007;28;20037;-73
2023/12/14 04:46:47;;;;;;;8.90;4.97;;;4.90;99.90;;;;;;5046316;28;20052;-74
2023/12/14 04:49:13;;;;;;;8.48;4.68;;;4.90;99.90;;;;;;5046893;28;20106;-74
2023/12/14 04:51:39;;;;;;;8.43;4.82;;;5.00;99.90;;;;;;5042094;28;20041;-74
2023/12/14 04:54:05;;;;;;;6.65;4.15;;;5.00;99.90;;;;;;5048817;28;20407;-74
2023/12/14 04:56:30;;;;;;;9.20;5.15;;;4.90;99.90;;;;;;5045915;28;20051;-74
2023/12/14 04:58:56;;;;;;;9.30;4.68;;;4.90;99.90;;;;;;5042740;28;20053;-74
2023/12/14 05:01:21;;;;;;;8.95;4.50;;;5.00;99.90;;;;;;5040312;28;20049;-74
2023/12/14 05:03:48;;;;;;;8.95;5.38;;;5.00;99.90;;;;;;5045727;28;20066;-73
2023/12/14 05:06:14;;;;;;;7.55;4.75;;;5.00;99.90;;;;;;5051054;28;20521;-73
2023/12/14 05:08:39;;;;;;;8.93;4.82;;;5.00;99.90;;;;;;5063754;28;20048;-74
2023/12/14 05:11:05;;;;;;;8.57;5.10;;;5.00;99.90;;;;;;5046187;28;20041;-74
2023/12/14 05:13:31;;;;;;;6.65;4.05;;;5.00;99.90;;;;;;5043155;28;20033;-74
2023/12/14 05:15:59;;;;;;;6.82;4.65;;;5.00;99.90;;;;;;5048517;28;20049;-74
2023/12/14 05:18:26;;;;;;;8.30;4.93;;;5.00;99.90;;;;;;5045035;28;20056;-74
2023/12/14 05:20:52;;;;;;;10.63;5.57;;;5.10;99.90;;;;;;5046770;28;20048;-74
2023/12/14 05:23:18;;;;;;;8.88;5.05;;;5.10;99.90;;;;;;5050098;28;20045;-74
2023/12/14 05:25:44;;;;;;;9.25;5.45;;;5.10;99.90;;;;;;5046144;28;20345;-74
2023/12/14 05:28:10;;;;;;;10.25;5.18;;;5.10;99.90;;;;;;5048199;28;20135;-74
2023/12/14 05:30:35;;;;;;;9.80;5.53;;;5.10;99.90;;;;;;5043809;28;20136;-73
2023/12/14 05:33:01;;;;;;;7.75;4.93;;;5.10;99.90;;;;;;5045774;28;20047;-74
2023/12/14 05:35:27;;;;;;;10.93;4.97;;;5.00;99.90;;;;;;5044676;28;20032;-74
2023/12/14 05:37:53;;;;;;;10.85;5.50;;;5.00;99.90;;;;;;5040752;28;20071;-74
2023/12/14 05:40:18;;;;;;;9.65;4.85;;;5.00;99.90;;;;;;5036315;28;21083;-74
2023/12/14 05:42:44;;;;;;;10.18;5.22;;;5.00;99.90;;;;;;5045794;28;20080;-74
2023/12/14 05:45:10;;;;;;;7.70;4.90;;;5.00;99.90;;;;;;5041697;28;20124;-74
2023/12/14 05:47:37;;;;;;;9.68;5.78;;;5.00;99.90;;;;;;5047261;28;20067;-73
2023/12/14 05:50:04;;;;;;;8.73;5.63;;;5.00;99.90;;;;;;5043809;28;20041;-73
2023/12/14 05:52:30;;;;;;;9.85;5.80;;;5.00;99.90;;;;;;5045516;28;20041;-74
2023/12/14 05:54:55;;;;;;;9.80;6.03;;;5.00;99.90;;;;;;5038966;28;20052;-74
2023/12/14 05:57:21;;;;;;;11.88;5.72;;;5.00;99.90;;;;;;5041879;28;20041;-73
2023/12/14 05:59:47;;;;;;;9.25;5.53;;;4.90;99.90;;;;;;5044517;28;20111;-74
2023/12/14 06:02:12;;;;;;;9.73;5.40;;;4.90;99.90;;;;;;5046294;28;20078;-73
2023/12/14 06:04:38;;;;;;;11.73;5.90;;;4.90;99.90;;;;;;5047207;28;20080;-73
2023/12/14 06:07:04;;;;;;;8.60;5.30;;;4.90;99.90;;;;;;5046846;28;20041;-73
2023/12/14 06:09:33;;;;;;;9.13;5.72;;;4.90;99.90;;;;;;5043312;28;20063;-74
2023/12/14 06:12:03;;;;;;;9.75;5.68;;;4.80;99.90;;;;;;5044124;28;20048;-74
2023/12/14 06:14:29;;;;;;;10.13;6.15;;;4.90;99.90;;;;;;5044710;28;20049;-73
2023/12/14 06:16:56;;;;;;;10.75;5.70;;;4.90;99.90;;;;;;5041702;28;20098;-74
2023/12/14 06:19:21;;;;;;;9.90;5.25;;;4.90;99.90;;;;;;5043510;28;20041;-73
2023/12/14 06:21:48;;;;;;;11.15;6.25;;;4.90;99.90;;;;;;5043633;28;20052;-74
2023/12/14 06:24:14;;;;;;;10.32;5.88;;;4.90;99.90;;;;;;5043379;28;20083;-74
2023/12/14 06:26:46;;;;;;;11.45;5.47;;;4.90;99.90;;;;;;5044850;28;20041;-72
2023/12/14 06:29:12;;;;;;;10.07;5.45;;;4.90;99.90;;;;;;5040580;28;20060;-74
2023/12/14 06:31:39;;;;;;;11.50;5.57;;;4.90;99.90;;;;;;5033753;28;20688;-74
2023/12/14 06:34:05;;;;;;;11.57;6.13;;;5.00;99.90;;;;;;5049484;28;20049;-74
2023/12/14 06:36:32;;;;;;;10.02;5.75;;;4.90;99.90;;;;;;5043666;28;21360;-73
2023/12/14 06:38:58;;;;;;;10.07;5.97;;;4.90;99.90;;;;;;5041952;28;20595;-74
2023/12/14 06:41:25;;;;;;;11.45;6.03;;;4.90;99.90;;;;;;5033265;28;20049;-73
2023/12/14 06:43:51;;;;;;;8.73;5.07;;;4.90;99.90;;;;;;5038184;28;20041;-74
2023/12/14 06:46:17;;;;;;;9.35;5.43;;;4.90;99.90;;;;;;5040018;28;20162;-73
2023/12/14 06:48:43;;;;;;;10.32;6.35;;;4.90;99.90;;;;;;5046996;28;20149;-73
2023/12/14 06:51:09;;;;;;;10.73;5.78;;;4.90;99.90;;;;;;5044685;28;20044;-73
2023/12/14 06:53:37;;;;;;;9.10;5.53;;;4.90;99.90;;;;;;5044079;28;20447;-73
2023/12/14 06:56:03;;;;;;;9.60;5.82;;;4.90;99.90;;;;;;5051239;28;20053;-73
2023/12/14 06:58:29;;;;;;;10.35;5.28;;;4.90;99.90;;;;;;5038794;28;20048;-73
2023/12/14 07:00:54;;;;;;;10.15;5.13;;;5.00;99.90;;;;;;5044695;28;20041;-73
2023/12/14 07:03:20;;;;;;;12.70;5.63;;;5.00;99.90;;;;;;5043328;28;20053;-73
2023/12/14 07:05:46;;;;;;;8.55;5.15;;;4.90;99.90;;;;;;5040244;28;20701;-73
2023/12/14 07:08:12;;;;;;;10.90;5.03;;;5.00;99.90;;;;;;5039345;28;20047;-73
2023/12/14 07:10:38;;;;;;;10.13;5.20;;;5.00;99.90;;;;;;5042325;28;20044;-73
2023/12/14 07:13:04;;;;;;;9.82;4.93;;;5.00;99.90;;;;;;5034750;28;20033;-73
2023/12/14 07:15:29;;;;;;;9.50;5.30;;;5.00;99.90;;;;;;5037301;28;20088;-73
2023/12/14 07:17:55;;;;;;;10.60;5.65;;;5.00;99.90;;;;;;5033912;28;20041;-73
2023/12/14 07:20:21;;;;;;;8.05;5.15;;;5.00;99.90;;;;;;5031794;28;20047;-73
2023/12/14 07:22:47;;;;;;;21.98;10.23;;;5.00;99.90;;;;;;5040939;28;20115;-73
2023/12/14 07:25:13;;;;;;;13.07;5.18;;;5.00;99.90;;;;;;5037558;28;21632;-73
2023/12/14 07:27:38;;;;;;;10.45;5.47;;;5.00;99.90;;;;;;5041478;28;20208;-74
2023/12/14 07:30:05;;;;;;;10.18;5.53;;;5.00;99.90;;;;;;5037759;28;20041;-73
2023/12/14 07:32:30;;;;;;;14.55;5.38;;;5.00;99.90;;;;;;5042456;28;20043;-73
2023/12/14 07:34:56;;;;;;;11.30;5.38;;;5.00;99.90;;;;;;5034246;28;20560;-73
2023/12/14 07:37:21;;;;;;;10.02;5.65;;;5.00;99.90;;;;;;5038261;28;20117;-73
2023/12/14 07:39:47;;;;;;;10.50;5.60;;;5.00;99.90;;;;;;5045220;28;20045;-73
2023/12/14 07:42:19;;;;;;;12.43;5.78;;;5.00;99.90;;;;;;5041310;28;20045;-73
2023/12/14 07:44:45;;;;;;;11.75;5.55;;;5.00;99.90;;;;;;5041901;28;20057;-73
2023/12/14 07:47:10;;;;;;;11.77;6.25;;;5.00;99.90;;;;;;5042850;28;20413;-73
2023/12/14 07:49:36;;;;;;;9.90;5.70;;;4.90;99.90;;;;;;5036259;28;20064;-73
2023/12/14 07:52:02;;;;;;;12.07;6.20;;;5.00;99.90;;;;;;5039686;28;20044;-73
2023/12/14 07:54:28;;;;;;;11.15;5.43;;;5.00;99.90;;;;;;5052076;28;20110;-73
2023/12/14 07:56:54;;;;;;;13.00;6.07;;;5.00;99.90;;;;;;5047522;28;20090;-72
2023/12/14 07:59:20;;;;;;;11.15;5.63;;;5.00;99.90;;;;;;5043205;28;20041;-73
2023/12/14 08:01:47;;;;;;;14.13;6.55;;;5.00;99.90;;;;;;5043307;28;20061;-73
2023/12/14 08:04:12;;;;;;;12.00;5.57;;;5.00;99.90;;;;;;5045413;28;20041;-73
2023/12/14 08:06:41;;;;;;;11.25;5.85;;;5.00;99.90;;;;;;5045176;28;20040;-73
2023/12/14 08:09:07;;;;;;;11.20;5.97;;;5.00;99.90;;;;;;5040079;28;20033;-73
2023/12/14 08:11:33;;;;;;;11.70;6.53;;;5.00;99.90;;;;;;5041411;28;20052;-73
2023/12/14 08:13:59;;;;;;;11.25;6.57;;;4.90;99.90;;;;;;5044749;28;20079;-73
2023/12/14 08:16:25;;;;;;;11.65;5.75;;;5.00;99.90;;;;;;5043242;28;20283;-74
2023/12/14 08:18:51;;;;;;;12.05;6.65;;;5.00;99.90;;;;;;5044387;28;20033;-73
2023/12/14 08:21:18;;;;;;;10.88;5.95;;;5.00;99.90;;;;;;5042544;28;20120;-73
2023/12/14 08:23:44;;;;;;;12.05;6.68;;;5.00;99.90;;;;;;5035281;28;20037;-75
2023/12/14 08:26:12;;;;;;;10.88;6.57;;;5.00;99.90;;;;;;5044880;28;20041;-76
2023/12/14 08:28:42;;;;;;;15.48;6.10;;;5.00;99.90;;;;;;5054314;28;20090;-75
2023/12/14 08:31:09;;;;;;;13.13;6.53;;;5.00;99.90;;;;;;5039316;28;20053;-75
2023/12/14 08:33:35;;;;;;;15.05;7.13;;;4.90;99.90;;;;;;5073930;28;20068;-76
2023/12/14 08:36:01;;;;;;;15.60;6.88;;;4.90;99.90;;;;;;5050771;28;20448;-74
2023/12/14 08:38:26;;;;;;;13.02;6.00;;;5.00;99.90;;;;;;5044726;28;20080;-73
2023/12/14 08:40:52;;;;;;;12.05;5.75;;;5.00;99.90;;;;;;5057183;28;21121;-74
2023/12/14 08:43:18;;;;;;;12.35;6.30;;;5.00;99.90;;;;;;5042072;28;20532;-75
2023/12/14 08:45:43;;;;;;;12.52;6.47;;;5.00;99.90;;;;;;5040561;28;20047;-74
2023/12/14 08:48:09;;;;;;;12.30;5.80;;;5.00;99.90;;;;;;5048190;28;20060;-74
2023/12/14 08:50:34;;;;;;;13.20;6.60;;;5.00;99.90;;;;;;5046773;28;20048;-74
2023/12/14 08:53:00;;;;;;;16.38;6.90;;;5.00;99.90;;;;;;5048850;28;20730;-74
2023/12/14 08:55:26;;;;;;;14.80;7.45;;;5.10;99.90;;;;;;5046007;28;20036;-74
2023/12/14 08:57:52;;;;;;;12.18;7.00;;;5.00;99.90;;;;;;5047214;28;20116;-74
2023/12/14 09:00:18;;;;;;;11.60;6.63;;;5.10;99.90;;;;;;5044567;28;20295;-75
2023/12/14 09:02:45;;;;;;;13.05;7.00;;;5.10;99.90;;;;;;5046899;28;20056;-75
2023/12/14 09:05:16;;;;;;;11.32;6.25;;;5.10;99.90;;;;;;5050030;28;20124;-75
2023/12/14 09:07:42;;;;;;;12.43;6.70;;;5.00;99.90;;;;;;5048950;28;20059;-75
2023/12/14 09:10:08;;;;;;;13.77;7.25;;;5.10;99.90;;;;;;5048387;28;20041;-75
2023/12/14 09:12:34;;;;;;;17.45;7.32;;;5.10;99.90;;;;;;5049134;28;20102;-73
2023/12/14 09:15:04;;;;;;;15.60;6.43;;;5.10;99.90;;;;;;5061515;28;20045;-76
2023/12/14 09:17:32;;;;;;;11.35;6.95;;;5.20;99.90;;;;;;5047889;28;20452;-75
2023/12/14 09:20:04;;;;;;;13.27;7.20;;;5.20;99.90;;;;;;5048667;28;20421;-76
2023/12/14 09:22:30;;;;;;;17.20;6.80;;;5.20;99.90;;;;;;5048441;28;20049;-84
2023/12/14 09:24:56;;;;;;;21.67;7.50;;;5.30;99.90;;;;;;5046134;28;20124;-79
2023/12/14 09:27:23;;;;;;;13.73;7.10;;;5.30;99.90;;;;;;5040825;28;20125;-76
2023/12/14 09:29:48;;;;;;;13.73;7.25;;;5.30;99.90;;;;;;5075750;28;20231;-75
2023/12/14 09:32:14;;;;;;;16.70;7.35;;;5.30;99.90;;;;;;5048272;28;20115;-75
2023/12/14 09:34:40;;;;;;;14.00;7.38;;;5.30;99.90;;;;;;5042434;28;20057;-75
2023/12/14 09:37:05;;;;;;;14.52;6.90;;;5.30;99.90;;;;;;5036950;28;20120;-75
2023/12/14 09:39:31;;;;;;;14.73;7.13;;;5.30;99.90;;;;;;5039805;28;20139;-75
2023/12/14 09:42:04;;;;;;;12.82;6.63;;;5.20;99.90;;;;;;5040833;28;20044;-75
2023/12/14 09:44:31;;;;;;;13.45;7.57;;;5.30;99.90;;;;;;5048525;28;20041;-75
2023/12/14 09:46:59;;;;;;;11.30;6.27;;;5.20;99.90;;;;;;5042902;28;20060;-76
2023/12/14 09:49:29;;;;;;;16.13;8.15;;;5.30;99.90;;;;;;5042251;28;20080;-75
2023/12/14 09:51:58;;;;;;;15.40;7.10;;;5.20;99.90;;;;;;5047755;28;20132;-75
2023/12/14 09:54:25;;;;;;;17.90;8.00;;;5.30;99.90;;;;;;5040450;28;20079;-75
2023/12/14 09:56:52;;;;;;;14.35;6.97;;;5.30;99.90;;;;;;5045141;28;20083;-74
2023/12/14 09:59:18;;;;;;;13.20;7.00;;;5.30;99.90;;;;;;5046831;28;20052;-76
2023/12/14 10:01:44;;;;;;;14.38;7.47;;;5.30;99.90;;;;;;5047084;28;20864;-76
2023/12/14 10:04:11;;;;;;;12.57;6.88;;;5.30;99.90;;;;;;5037597;28;20041;-75
2023/12/14 10:06:37;;;;;;;16.67;8.37;;;5.30;99.90;;;;;;5043741;28;20191;-75
2023/12/14 10:09:04;;;;;;;13.80;7.20;;;5.30;99.90;;;;;;5046049;28;20488;-75
2023/12/14 10:11:30;;;;;;;12.80;7.40;;;5.40;99.90;;;;;;5047675;28;20041;-73
2023/12/14 10:13:56;;;;;;;14.68;7.75;;;5.40;99.90;;;;;;5035915;28;20307;-74
2023/12/14 10:16:29;;;;;;;13.95;7.65;;;5.40;99.90;;;;;;5042562;28;20040;-72
2023/12/14 10:18:56;;;;;;;16.38;7.55;;;5.40;99.90;;;;;;5045376;28;20056;-72
2023/12/14 10:21:22;;;;;;;15.57;7.57;;;5.40;99.90;;;;;;5045198;28;20045;-73
2023/12/14 10:23:48;;;;;;;15.73;7.72;;;5.40;99.90;;;;;;5045330;28;20045;-73
2023/12/14 10:26:15;;;;;;;15.30;8.50;;;5.40;99.90;;;;;;5044595;28;20037;-72
2023/12/14 10:28:40;;;;;;;16.20;8.43;;;5.40;99.90;;;;;;5046405;28;20126;-73
2023/12/14 10:31:07;;;;;;;15.55;8.02;;;5.40;99.90;;;;;;5045621;28;20083;-73
2023/12/14 10:33:33;;;;;;;16.88;8.50;;;5.40;99.90;;;;;;5041606;28;20130;-73
2023/12/14 10:36:00;;;;;;;15.88;8.65;;;5.40;99.90;;;;;;5043693;28;20080;-73
2023/12/14 10:38:27;;;;;;;19.50;9.65;;;5.40;99.90;;;;;;5045144;28;20041;-73
2023/12/14 10:40:55;;;;;;;11.90;6.50;;;5.40;99.90;;;;;;5044028;28;20048;-73
2023/12/14 10:43:21;;;;;;;17.90;8.63;;;5.40;99.90;;;;;;5044785;28;20520;-76
2023/12/14 10:45:47;;;;;;;14.57;7.40;;;5.40;99.90;;;;;;5049805;28;20404;-75
2023/12/14 10:48:13;;;;;;;13.80;7.47;;;5.40;99.90;;;;;;5038224;28;20048;-73
2023/12/14 10:50:42;;;;;;;16.08;7.85;;;5.50;99.90;;;;;;5048324;28;20052;-74
2023/12/14 10:53:08;;;;;;;18.17;7.63;;;5.50;99.90;;;;;;5046359;28;20090;-76
2023/12/14 10:55:40;;;;;;;18.00;8.60;;;5.50;99.90;;;;;;5046752;28;20044;-75
2023/12/14 10:58:07;;;;;;;13.13;6.75;;;5.50;99.90;;;;;;5046192;28;20084;-74
2023/12/14 11:00:33;;;;;;;;;;;5.60;99.90;;;;;;5040310;28;20564;-75
2023/12/14 11:03:00;;;;;;;14.35;7.32;;;5.60;99.90;;;;;;5035265;28;20023;-75
2023/12/14 11:05:29;;;;;;;14.80;7.82;;;5.60;99.90;;;;;;5030942;28;20033;-76
2023/12/14 11:07:57;;;;;;;17.30;7.95;;;5.60;99.90;;;;;;5043482;28;20396;-77
2023/12/14 11:10:28;;;;;;;17.50;8.10;;;5.60;99.90;;;;;;5040188;28;20047;-76
2023/12/14 11:12:59;;;;;;;16.27;8.07;;;5.50;99.90;;;;;;5045494;28;20041;-75
2023/12/14 11:15:27;;;;;;;15.43;7.22;;;5.50;99.90;;;;;;5044065;28;20055;-76
2023/12/14 11:18:11;;;;;;;15.27;8.25;;;5.50;99.90;;;;;;5040580;28;20099;-78
2023/12/14 11:20:46;;;;;;;16.17;7.95;;;5.50;99.90;;;;;;5045144;28;20056;-77
2023/12/14 11:23:19;;;;;;;16.33;8.30;;;5.50;99.90;;;;;;5034834;28;20072;-75
2023/12/14 11:25:51;;;;;;;16.60;8.75;;;5.50;99.90;;;;;;5039764;28;20484;-77
2023/12/14 11:28:16;;;;;;;16.80;7.70;;;5.60;99.90;;;;;;5045325;28;20040;-75
2023/12/14 11:30:44;;;;;;;15.27;7.90;;;5.60;99.90;;;;;;5044806;28;20052;-72
2023/12/14 11:33:12;;;;;;;16.38;8.05;;;5.60;99.90;;;;;;5046968;28;20358;-77
2023/12/14 11:35:37;;;;;;;;;;;5.70;99.90;;;;;;5041611;28;20049;-76
2023/12/14 11:38:10;;;;;;;16.42;8.48;;;5.70;99.90;;;;;;5046161;28;19949;-75
2023/12/14 11:40:36;;;;;;;15.77;7.72;;;5.70;99.90;;;;;;5045679;28;20052;-74
2023/12/14 11:43:09;;;;;;;17.88;8.57;;;5.70;99.90;;;;;;5045556;28;20091;-75
2023/12/14 11:45:36;;;;;;;14.95;8.23;;;5.70;99.90;;;;;;5033519;28;20506;-77
2023/12/14 11:48:06;;;;;;;14.70;7.63;;;5.70;99.90;;;;;;5044812;28;20049;-76
2023/12/14 11:50:35;;;;;;;17.63;7.68;;;5.70;99.90;;;;;;5047438;28;20547;-76
2023/12/14 11:53:03;;;;;;;16.33;6.90;;;5.70;99.90;;;;;;5063039;28;20550;-76
2023/12/14 11:55:30;;;;;;;15.15;7.20;;;5.60;99.90;;;;;;5045119;28;20049;-75
2023/12/14 11:57:56;;;;;;;14.00;7.25;;;5.60;99.90;;;;;;5042120;28;20053;-76
2023/12/14 12:00:26;;;;;;;16.88;8.02;;;5.60;99.90;;;;;;5055267;28;20469;-77
2023/12/14 12:03:06;;;;;;;18.95;8.30;;;5.60;99.90;;;;;;5043741;28;20061;-76
2023/12/14 12:05:42;;;;;;;15.52;7.28;;;5.60;99.90;;;;;;5046961;28;20182;-76
2023/12/14 12:08:10;;;;;;;14.48;7.25;;;5.60;99.90;;;;;;5041075;28;20049;-72
2023/12/14 12:10:36;;;;;;;17.38;8.07;;;5.60;99.90;;;;;;5043517;28;20041;-72
2023/12/14 12:13:06;;;;;;;16.55;6.63;;;5.60;99.90;;;;;;5047208;28;20052;-73
2023/12/14 12:15:35;;;;;;;11.88;6.47;;;5.60;99.90;;;;;;5045167;28;20098;-71
2023/12/14 12:18:07;;;;;;;12.00;6.55;;;5.60;99.90;;;;;;5042475;28;20095;-73
2023/12/14 12:20:33;;;;;;;15.60;7.38;;;5.60;99.90;;;;;;5046991;28;20124;-76
2023/12/14 12:23:00;;;;;;;13.77;6.25;;;5.60;99.90;;;;;;5049700;28;20045;-75
2023/12/14 12:25:27;;;;;;;15.75;6.95;;;5.60;99.90;;;;;;5049865;28;20045;-74
2023/12/14 12:27:57;;;;;;;15.27;7.25;;;5.60;99.90;;;;;;5049931;28;20489;-73
2023/12/14 12:30:23;;;;;;;28.10;6.07;;;5.50;99.90;;;;;;5051435;28;20049;-73
2023/12/14 12:32:51;;;;;;;15.90;6.50;;;5.50;99.90;;;;;;5055032;28;20079;-73
2023/12/14 12:35:18;;;;;;;16.75;6.60;;;5.50;99.90;;;;;;5038100;28;20057;-72
2023/12/14 12:37:44;;;;;;;14.10;6.47;;;5.60;99.90;;;;;;5048184;28;20060;-73
2023/12/14 12:40:10;;;;;;;12.98;7.07;;;5.50;99.90;;;;;;5051489;28;20045;-73
2023/12/14 12:42:35;;;;;;;14.38;6.78;;;5.50;99.90;;;;;;5054908;28;20167;-73
2023/12/14 12:45:01;;;;;;;18.02;9.00;;;5.50;99.90;;;;;;5036584;28;20233;-75
2023/12/14 12:47:27;;;;;;;12.50;6.50;;;5.50;99.90;;;;;;5047825;28;20840;-76